sensor_id;sensor_type;location;lat;lon;timestamp;temperature;humidity
13652;DHT22;6899;51.546;6.912;2023-02-25T00:01:04;2.50;99.90
13652;DHT22;6899;51.546;6.912;2023-02-25T00:03:31;2.50;99.90
13652;DHT22;6899;51.546;6.912;2023-02-25T00:05:59;2.50;99.90
13652;DHT22;6899;51.546;6.912;2023-02-25T00:08:27;2.60;99.90
13652;DHT22;6899;51.546;6.912;2023-02-25T00:11:00;2.60;99.90
13652;DHT22;6899;51.546;6.912;2023-02-25T00:13:27;2.70;99.90
13652;DHT22;6899;51.546;6.912;2023-02-25T00:15:54;2.70;99.90
13652;DHT22;6899;51.546;6.912;2023-02-25T00:18:22;2.70;99.90
13652;DHT22;6899;51.546;6.912;2023-02-25T00:20:49;2.70;99.90
13652;DHT22;6899;51.546;6.912;2023-02-25T00:23:16;2.70;99.90
13652;DHT22;6899;51.546;6.912;2023-02-25T00:25:43;2.70;99.90
13652;DHT22;6899;51.546;6.912;2023-02-25T00:28:12;2.70;99.90
13652;DHT22;6899;51.546;6.912;2023-02-25T00:30:39;2.70;99.90
13652;DHT22;6899;51.546;6.912;2023-02-25T00:33:07;2.70;99.90
13652;DHT22;6899;51.546;6.912;2023-02-25T00:35:37;2.70;99.90
13652;DHT22;6899;51.546;6.912;2023-02-25T00:38:05;2.60;99.90
13652;DHT22;6899;51.546;6.912;2023-02-25T00:40:32;2.60;99.90
13652;DHT22;6899;51.546;6.912;2023-02-25T00:42:58;2.50;99.90
13652;DHT22;6899;51.546;6.912;2023-02-25T00:45:27;2.50;99.90
13652;DHT22;6899;51.546;6.912;2023-02-25T00:47:54;2.50;99.90
13652;DHT22;6899;51.546;6.912;2023-02-25T00:50:20;2.50;99.90
13652;DHT22;6899;51.546;6.912;2023-02-25T00:52:47;2.40;99.90
13652;DHT22;6899;51.546;6.912;2023-02-25T00:55:15;2.40;99.90
13652;DHT22;6899;51.546;6.912;2023-02-25T00:57:42;2.40;99.90
13652;DHT22;6899;51.546;6.912;2023-02-25T01:00:10;2.30;99.90
13652;DHT22;6899;51.546;6.912;2023-02-25T01:02:42;2.30;99.90
13652;DHT22;6899;51.546;6.912;2023-02-25T01:05:10;2.40;99.90
13652;DHT22;6899;51.546;6.912;2023-02-25T01:07:37;2.40;99.90
13652;DHT22;6899;51.546;6.912;2023-02-25T01:10:04;2.40;99.90
13652;DHT22;6899;51.546;6.912;2023-02-25T01:12:31;2.40;99.90
13652;DHT22;6899;51.546;6.912;2023-02-25T01:14:59;2.40;99.90
13652;DHT22;6899;51.546;6.912;2023-02-25T01:17:26;2.30;99.90
13652;DHT22;6899;51.546;6.912;2023-02-25T01:19:54;2.30;99.90
13652;DHT22;6899;51.546;6.912;2023-02-25T01:22:22;2.30;99.90
13652;DHT22;6899;51.546;6.912;2023-02-25T01:24:49;2.40;99.90
13652;DHT22;6899;51.546;6.912;2023-02-25T01:27:16;2.50;99.90
13652;DHT22;6899;51.546;6.912;2023-02-25T01:29:43;2.50;99.90
13652;DHT22;6899;51.546;6.912;2023-02-25T01:32:12;2.50;99.90
13652;DHT22;6899;51.546;6.912;2023-02-25T01:34:39;2.40;99.90
13652;DHT22;6899;51.546;6.912;2023-02-25T01:37:07;2.50;99.90
13652;DHT22;6899;51.546;6.912;2023-02-25T01:39:34;2.50;99.90
13652;DHT22;6899;51.546;6.912;2023-02-25T01:42:15;2.50;99.90
13652;DHT22;6899;51.546;6.912;2023-02-25T01:45:21;2.60;99.90
13652;DHT22;6899;51.546;6.912;2023-02-25T01:47:51;2.60;99.90
13652;DHT22;6899;51.546;6.912;2023-02-25T01:50:22;2.60;99.90
13652;DHT22;6899;51.546;6.912;2023-02-25T01:52:51;2.60;99.90
13652;DHT22;6899;51.546;6.912;2023-02-25T01:55:19;2.60;99.90
13652;DHT22;6899;51.546;6.912;2023-02-25T01:57:46;2.50;99.90
13652;DHT22;6899;51.546;6.912;2023-02-25T02:00:15;2.60;99.90
13652;DHT22;6899;51.546;6.912;2023-02-25T02:02:43;2.60;99.90
13652;DHT22;6899;51.546;6.912;2023-02-25T02:05:11;2.70;99.90
13652;DHT22;6899;51.546;6.912;2023-02-25T02:07:39;2.70;99.90
13652;DHT22;6899;51.546;6.912;2023-02-25T02:10:09;2.80;99.90
13652;DHT22;6899;51.546;6.912;2023-02-25T02:12:38;2.80;99.90
13652;DHT22;6899;51.546;6.912;2023-02-25T02:15:08;2.80;99.90
13652;DHT22;6899;51.546;6.912;2023-02-25T02:17:39;2.80;99.90
13652;DHT22;6899;51.546;6.912;2023-02-25T02:20:11;2.70;99.90
13652;DHT22;6899;51.546;6.912;2023-02-25T02:26:17;2.70;99.90
13652;DHT22;6899;51.546;6.912;2023-02-25T02:29:21;2.70;99.90
13652;DHT22;6899;51.546;6.912;2023-02-25T02:32:03;2.70;99.90
13652;DHT22;6899;51.546;6.912;2023-02-25T02:34:40;2.80;99.90
13652;DHT22;6899;51.546;6.912;2023-02-25T02:37:18;2.80;99.90
13652;DHT22;6899;51.546;6.912;2023-02-25T02:39:52;2.80;99.90
13652;DHT22;6899;51.546;6.912;2023-02-25T02:42:29;2.90;99.90
13652;DHT22;6899;51.546;6.912;2023-02-25T02:45:01;2.90;99.90
13652;DHT22;6899;51.546;6.912;2023-02-25T02:47:34;2.90;99.90
13652;DHT22;6899;51.546;6.912;2023-02-25T02:50:04;2.90;99.90
13652;DHT22;6899;51.546;6.912;2023-02-25T02:52:34;2.90;99.90
13652;DHT22;6899;51.546;6.912;2023-02-25T02:55:06;2.90;99.90
13652;DHT22;6899;51.546;6.912;2023-02-25T02:57:37;2.80;99.90
13652;DHT22;6899;51.546;6.912;2023-02-25T03:00:11;2.80;99.90
13652;DHT22;6899;51.546;6.912;2023-02-25T03:02:46;2.80;99.90
13652;DHT22;6899;51.546;6.912;2023-02-25T03:05:17;2.80;99.90
13652;DHT22;6899;51.546;6.912;2023-02-25T03:07:47;2.70;99.90
13652;DHT22;6899;51.546;6.912;2023-02-25T03:10:19;2.70;99.90
13652;DHT22;6899;51.546;6.912;2023-02-25T03:12:47;2.70;99.90
13652;DHT22;6899;51.546;6.912;2023-02-25T03:15:14;2.70;99.90
13652;DHT22;6899;51.546;6.912;2023-02-25T03:17:45;2.70;99.90
13652;DHT22;6899;51.546;6.912;2023-02-25T03:20:17;2.80;99.90
13652;DHT22;6899;51.546;6.912;2023-02-25T03:22:48;2.80;99.90
13652;DHT22;6899;51.546;6.912;2023-02-25T03:25:19;2.80;99.90
13652;DHT22;6899;51.546;6.912;2023-02-25T03:27:48;2.80;99.90
13652;DHT22;6899;51.546;6.912;2023-02-25T03:30:22;2.80;99.90
13652;DHT22;6899;51.546;6.912;2023-02-25T03:32:55;2.80;99.90
13652;DHT22;6899;51.546;6.912;2023-02-25T03:35:23;2.70;99.90
13652;DHT22;6899;51.546;6.912;2023-02-25T03:37:54;2.70;99.90
13652;DHT22;6899;51.546;6.912;2023-02-25T03:40:24;2.70;99.90
13652;DHT22;6899;51.546;6.912;2023-02-25T03:42:57;2.70;99.90
13652;DHT22;6899;51.546;6.912;2023-02-25T03:45:25;2.70;99.90
13652;DHT22;6899;51.546;6.912;2023-02-25T03:47:54;2.70;99.90
13652;DHT22;6899;51.546;6.912;2023-02-25T03:50:26;2.70;99.90
13652;DHT22;6899;51.546;6.912;2023-02-25T03:52:56;2.70;99.90
13652;DHT22;6899;51.546;6.912;2023-02-25T03:55:24;2.70;99.90
13652;DHT22;6899;51.546;6.912;2023-02-25T03:57:51;2.70;99.90
13652;DHT22;6899;51.546;6.912;2023-02-25T04:00:23;2.70;99.90
13652;DHT22;6899;51.546;6.912;2023-02-25T04:02:50;2.70;99.90
13652;DHT22;6899;51.546;6.912;2023-02-25T04:05:20;2.70;99.90
13652;DHT22;6899;51.546;6.912;2023-02-25T04:07:48;2.70;99.90
13652;DHT22;6899;51.546;6.912;2023-02-25T04:10:15;2.70;99.90
13652;DHT22;6899;51.546;6.912;2023-02-25T04:12:42;2.70;99.90
13652;DHT22;6899;51.546;6.912;2023-02-25T04:15:10;2.70;99.90
13652;DHT22;6899;51.546;6.912;2023-02-25T04:17:38;2.80;99.90
13652;DHT22;6899;51.546;6.912;2023-02-25T04:20:05;2.80;99.90
13652;DHT22;6899;51.546;6.912;2023-02-25T04:22:34;2.80;99.90
13652;DHT22;6899;51.546;6.912;2023-02-25T04:25:01;2.80;99.90
13652;DHT22;6899;51.546;6.912;2023-02-25T04:27:28;2.80;99.90
13652;DHT22;6899;51.546;6.912;2023-02-25T04:29:57;2.80;99.90
13652;DHT22;6899;51.546;6.912;2023-02-25T04:32:24;2.80;99.90
13652;DHT22;6899;51.546;6.912;2023-02-25T04:34:51;2.80;99.90
13652;DHT22;6899;51.546;6.912;2023-02-25T04:37:18;2.80;99.90
13652;DHT22;6899;51.546;6.912;2023-02-25T04:39:46;2.80;99.90
13652;DHT22;6899;51.546;6.912;2023-02-25T04:42:12;2.80;99.90
13652;DHT22;6899;51.546;6.912;2023-02-25T04:44:39;2.80;99.90
13652;DHT22;6899;51.546;6.912;2023-02-25T04:47:06;2.70;99.90
13652;DHT22;6899;51.546;6.912;2023-02-25T04:49:33;2.80;99.90
13652;DHT22;6899;51.546;6.912;2023-02-25T04:52:09;2.70;99.90
13652;DHT22;6899;51.546;6.912;2023-02-25T04:54:36;2.70;99.90
13652;DHT22;6899;51.546;6.912;2023-02-25T04:57:04;2.70;99.90
13652;DHT22;6899;51.546;6.912;2023-02-25T04:59:31;2.80;99.90
13652;DHT22;6899;51.546;6.912;2023-02-25T05:01:58;2.70;99.90
13652;DHT22;6899;51.546;6.912;2023-02-25T05:04:25;2.70;99.90
13652;DHT22;6899;51.546;6.912;2023-02-25T05:06:52;2.70;99.90
13652;DHT22;6899;51.546;6.912;2023-02-25T05:09:19;2.70;99.90
13652;DHT22;6899;51.546;6.912;2023-02-25T05:11:46;2.80;99.90
13652;DHT22;6899;51.546;6.912;2023-02-25T05:14:14;2.80;99.90
13652;DHT22;6899;51.546;6.912;2023-02-25T05:16:41;2.80;99.90
13652;DHT22;6899;51.546;6.912;2023-02-25T05:19:13;2.70;99.90
13652;DHT22;6899;51.546;6.912;2023-02-25T05:21:40;2.70;99.90
13652;DHT22;6899;51.546;6.912;2023-02-25T05:24:07;2.60;99.90
13652;DHT22;6899;51.546;6.912;2023-02-25T05:26:34;2.60;99.90
13652;DHT22;6899;51.546;6.912;2023-02-25T05:29:01;2.60;99.90
13652;DHT22;6899;51.546;6.912;2023-02-25T05:31:29;2.60;99.90
13652;DHT22;6899;51.546;6.912;2023-02-25T05:33:56;2.70;99.90
13652;DHT22;6899;51.546;6.912;2023-02-25T05:36:23;2.70;99.90
13652;DHT22;6899;51.546;6.912;2023-02-25T05:38:52;2.70;99.90
13652;DHT22;6899;51.546;6.912;2023-02-25T05:41:20;2.80;99.90
13652;DHT22;6899;51.546;6.912;2023-02-25T05:43:47;2.80;99.90
13652;DHT22;6899;51.546;6.912;2023-02-25T05:46:14;2.80;99.90
13652;DHT22;6899;51.546;6.912;2023-02-25T05:48:43;2.80;99.90
13652;DHT22;6899;51.546;6.912;2023-02-25T05:51:13;2.90;99.90
13652;DHT22;6899;51.546;6.912;2023-02-25T05:53:41;2.90;99.90
13652;DHT22;6899;51.546;6.912;2023-02-25T05:56:12;2.90;99.90
13652;DHT22;6899;51.546;6.912;2023-02-25T05:58:39;3.00;99.90
13652;DHT22;6899;51.546;6.912;2023-02-25T06:01:06;3.00;99.90
13652;DHT22;6899;51.546;6.912;2023-02-25T06:03:36;3.00;99.90
13652;DHT22;6899;51.546;6.912;2023-02-25T06:06:05;2.90;99.90
13652;DHT22;6899;51.546;6.912;2023-02-25T06:08:32;2.90;99.90
13652;DHT22;6899;51.546;6.912;2023-02-25T06:10:59;2.80;99.90
13652;DHT22;6899;51.546;6.912;2023-02-25T06:13:27;2.70;99.90
13652;DHT22;6899;51.546;6.912;2023-02-25T06:15:54;2.70;99.90
13652;DHT22;6899;51.546;6.912;2023-02-25T06:18:21;2.70;99.90
13652;DHT22;6899;51.546;6.912;2023-02-25T06:20:48;2.70;99.90
13652;DHT22;6899;51.546;6.912;2023-02-25T06:23:16;2.70;99.90
13652;DHT22;6899;51.546;6.912;2023-02-25T06:25:43;2.70;99.90
13652;DHT22;6899;51.546;6.912;2023-02-25T06:28:10;2.70;99.90
13652;DHT22;6899;51.546;6.912;2023-02-25T06:30:40;2.70;99.90
13652;DHT22;6899;51.546;6.912;2023-02-25T06:33:07;2.70;99.90
13652;DHT22;6899;51.546;6.912;2023-02-25T06:35:34;2.70;99.90
13652;DHT22;6899;51.546;6.912;2023-02-25T06:38:00;2.80;99.90
13652;DHT22;6899;51.546;6.912;2023-02-25T06:40:29;2.80;99.90
13652;DHT22;6899;51.546;6.912;2023-02-25T06:42:57;2.80;99.90
13652;DHT22;6899;51.546;6.912;2023-02-25T06:45:24;2.90;99.90
13652;DHT22;6899;51.546;6.912;2023-02-25T06:47:51;2.90;99.90
13652;DHT22;6899;51.546;6.912;2023-02-25T06:50:18;2.90;99.90
13652;DHT22;6899;51.546;6.912;2023-02-25T06:52:45;2.90;99.90
13652;DHT22;6899;51.546;6.912;2023-02-25T06:55:12;3.00;99.90
13652;DHT22;6899;51.546;6.912;2023-02-25T06:57:40;3.00;99.90
13652;DHT22;6899;51.546;6.912;2023-02-25T07:00:08;3.00;99.90
13652;DHT22;6899;51.546;6.912;2023-02-25T07:02:35;3.00;99.90
13652;DHT22;6899;51.546;6.912;2023-02-25T07:05:05;3.10;99.90
13652;DHT22;6899;51.546;6.912;2023-02-25T07:07:32;3.20;99.90
13652;DHT22;6899;51.546;6.912;2023-02-25T07:09:58;3.30;99.90
13652;DHT22;6899;51.546;6.912;2023-02-25T07:12:25;3.30;99.90
13652;DHT22;6899;51.546;6.912;2023-02-25T07:14:53;3.30;99.90
13652;DHT22;6899;51.546;6.912;2023-02-25T07:17:20;3.30;99.90
13652;DHT22;6899;51.546;6.912;2023-02-25T07:19:47;3.40;99.90
13652;DHT22;6899;51.546;6.912;2023-02-25T07:22:15;3.30;99.90
13652;DHT22;6899;51.546;6.912;2023-02-25T07:24:43;3.30;99.90
13652;DHT22;6899;51.546;6.912;2023-02-25T07:27:11;3.40;99.90
13652;DHT22;6899;51.546;6.912;2023-02-25T07:29:39;3.50;99.90
13652;DHT22;6899;51.546;6.912;2023-02-25T07:32:07;3.50;99.90
13652;DHT22;6899;51.546;6.912;2023-02-25T07:34:34;3.60;99.90
13652;DHT22;6899;51.546;6.912;2023-02-25T07:37:01;3.60;99.90
13652;DHT22;6899;51.546;6.912;2023-02-25T07:39:28;3.60;99.90
13652;DHT22;6899;51.546;6.912;2023-02-25T07:41:55;3.70;99.90
13652;DHT22;6899;51.546;6.912;2023-02-25T07:44:21;3.70;99.90
13652;DHT22;6899;51.546;6.912;2023-02-25T07:46:48;3.70;99.90
13652;DHT22;6899;51.546;6.912;2023-02-25T07:49:17;3.70;99.90
13652;DHT22;6899;51.546;6.912;2023-02-25T07:51:49;3.60;99.90
13652;DHT22;6899;51.546;6.912;2023-02-25T07:54:34;3.50;99.90
13652;DHT22;6899;51.546;6.912;2023-02-25T07:57:01;3.40;99.90
13652;DHT22;6899;51.546;6.912;2023-02-25T07:59:30;3.40;99.90
13652;DHT22;6899;51.546;6.912;2023-02-25T08:01:57;3.40;99.90
13652;DHT22;6899;51.546;6.912;2023-02-25T08:04:25;3.40;99.90
13652;DHT22;6899;51.546;6.912;2023-02-25T08:06:54;3.40;99.90
13652;DHT22;6899;51.546;6.912;2023-02-25T08:09:21;3.40;99.90
13652;DHT22;6899;51.546;6.912;2023-02-25T08:11:48;3.40;99.90
13652;DHT22;6899;51.546;6.912;2023-02-25T08:14:14;3.40;99.90
13652;DHT22;6899;51.546;6.912;2023-02-25T08:16:41;3.60;99.90
13652;DHT22;6899;51.546;6.912;2023-02-25T08:19:08;3.80;99.90
13652;DHT22;6899;51.546;6.912;2023-02-25T08:21:36;4.10;99.90
13652;DHT22;6899;51.546;6.912;2023-02-25T08:24:05;4.40;99.90
13652;DHT22;6899;51.546;6.912;2023-02-25T08:26:33;4.60;99.90
13652;DHT22;6899;51.546;6.912;2023-02-25T08:28:59;4.70;99.90
13652;DHT22;6899;51.546;6.912;2023-02-25T08:31:26;4.70;99.90
13652;DHT22;6899;51.546;6.912;2023-02-25T08:33:53;4.90;99.90
13652;DHT22;6899;51.546;6.912;2023-02-25T08:36:23;4.90;99.90
13652;DHT22;6899;51.546;6.912;2023-02-25T08:38:53;4.80;99.90
13652;DHT22;6899;51.546;6.912;2023-02-25T08:41:22;4.80;99.90
13652;DHT22;6899;51.546;6.912;2023-02-25T08:43:49;4.80;99.90
13652;DHT22;6899;51.546;6.912;2023-02-25T08:46:18;5.00;99.90
13652;DHT22;6899;51.546;6.912;2023-02-25T08:48:47;5.50;99.90
13652;DHT22;6899;51.546;6.912;2023-02-25T08:51:14;5.70;99.90
13652;DHT22;6899;51.546;6.912;2023-02-25T08:53:41;5.90;99.90
13652;DHT22;6899;51.546;6.912;2023-02-25T08:56:11;5.90;99.90
13652;DHT22;6899;51.546;6.912;2023-02-25T08:58:39;5.70;99.90
13652;DHT22;6899;51.546;6.912;2023-02-25T09:01:06;5.50;99.90
13652;DHT22;6899;51.546;6.912;2023-02-25T09:03:37;5.20;99.90
13652;DHT22;6899;51.546;6.912;2023-02-25T09:06:04;5.20;99.90
13652;DHT22;6899;51.546;6.912;2023-02-25T09:08:31;5.40;99.90
13652;DHT22;6899;51.546;6.912;2023-02-25T09:10:58;5.70;99.90
13652;DHT22;6899;51.546;6.912;2023-02-25T09:13:26;5.90;99.90
13652;DHT22;6899;51.546;6.912;2023-02-25T09:15:57;5.80;99.90
13652;DHT22;6899;51.546;6.912;2023-02-25T09:18:24;5.80;99.90
13652;DHT22;6899;51.546;6.912;2023-02-25T09:20:51;5.60;99.90
13652;DHT22;6899;51.546;6.912;2023-02-25T09:23:18;5.30;99.90
13652;DHT22;6899;51.546;6.912;2023-02-25T09:25:45;5.10;99.90
13652;DHT22;6899;51.546;6.912;2023-02-25T09:28:12;5.00;99.90
13652;DHT22;6899;51.546;6.912;2023-02-25T09:30:43;5.10;99.90
13652;DHT22;6899;51.546;6.912;2023-02-25T09:33:10;4.80;99.90
13652;DHT22;6899;51.546;6.912;2023-02-25T09:35:37;4.50;99.90
13652;DHT22;6899;51.546;6.912;2023-02-25T09:38:05;4.40;99.90
13652;DHT22;6899;51.546;6.912;2023-02-25T09:40:38;4.20;99.90
13652;DHT22;6899;51.546;6.912;2023-02-25T09:43:18;4.10;99.90
13652;DHT22;6899;51.546;6.912;2023-02-25T09:45:49;4.00;99.90
13652;DHT22;6899;51.546;6.912;2023-02-25T09:48:22;4.00;99.90
13652;DHT22;6899;51.546;6.912;2023-02-25T09:50:56;4.00;99.90
13652;DHT22;6899;51.546;6.912;2023-02-25T09:53:30;4.00;99.90
13652;DHT22;6899;51.546;6.912;2023-02-25T09:55:58;3.90;99.90
13652;DHT22;6899;51.546;6.912;2023-02-25T09:58:31;4.00;99.90
13652;DHT22;6899;51.546;6.912;2023-02-25T10:01:04;4.30;99.90
13652;DHT22;6899;51.546;6.912;2023-02-25T10:03:43;4.40;99.90
13652;DHT22;6899;51.546;6.912;2023-02-25T10:06:16;4.40;99.90
13652;DHT22;6899;51.546;6.912;2023-02-25T10:08:52;4.40;99.90
13652;DHT22;6899;51.546;6.912;2023-02-25T10:11:33;4.40;99.90
13652;DHT22;6899;51.546;6.912;2023-02-25T10:14:13;4.50;99.90
13652;DHT22;6899;51.546;6.912;2023-02-25T10:16:50;4.70;99.90
13652;DHT22;6899;51.546;6.912;2023-02-25T10:19:31;5.10;99.90
13652;DHT22;6899;51.546;6.912;2023-02-25T10:22:31;5.30;99.90
13652;DHT22;6899;51.546;6.912;2023-02-25T10:25:07;5.40;99.90
13652;DHT22;6899;51.546;6.912;2023-02-25T10:27:37;5.50;99.90
13652;DHT22;6899;51.546;6.912;2023-02-25T10:30:14;5.50;99.90
13652;DHT22;6899;51.546;6.912;2023-02-25T10:32:44;5.30;99.90
13652;DHT22;6899;51.546;6.912;2023-02-25T10:35:15;5.20;99.90
13652;DHT22;6899;51.546;6.912;2023-02-25T10:37:42;5.40;99.90
13652;DHT22;6899;51.546;6.912;2023-02-25T10:40:14;5.60;99.90
13652;DHT22;6899;51.546;6.912;2023-02-25T10:42:44;6.30;99.90
13652;DHT22;6899;51.546;6.912;2023-02-25T10:45:19;6.50;99.90
13652;DHT22;6899;51.546;6.912;2023-02-25T10:47:52;6.70;99.90
13652;DHT22;6899;51.546;6.912;2023-02-25T10:50:22;6.80;99.90
13652;DHT22;6899;51.546;6.912;2023-02-25T10:52:55;6.90;99.90
13652;DHT22;6899;51.546;6.912;2023-02-25T10:58:29;6.50;99.90
13652;DHT22;6899;51.546;6.912;2023-02-25T11:00:59;6.40;99.90
13652;DHT22;6899;51.546;6.912;2023-02-25T11:03:31;6.40;99.90
13652;DHT22;6899;51.546;6.912;2023-02-25T11:06:11;6.90;99.90
13652;DHT22;6899;51.546;6.912;2023-02-25T11:08:38;7.00;99.90
13652;DHT22;6899;51.546;6.912;2023-02-25T11:11:13;6.90;99.90
13652;DHT22;6899;51.546;6.912;2023-02-25T11:13:40;6.70;99.90
13652;DHT22;6899;51.546;6.912;2023-02-25T11:16:09;6.70;99.90
13652;DHT22;6899;51.546;6.912;2023-02-25T11:18:39;6.70;99.90
13652;DHT22;6899;51.546;6.912;2023-02-25T11:21:08;6.80;99.90
13652;DHT22;6899;51.546;6.912;2023-02-25T11:23:43;7.00;99.90
13652;DHT22;6899;51.546;6.912;2023-02-25T11:26:15;7.10;99.90
13652;DHT22;6899;51.546;6.912;2023-02-25T11:28:44;7.20;99.90
13652;DHT22;6899;51.546;6.912;2023-02-25T11:31:16;7.00;99.90
13652;DHT22;6899;51.546;6.912;2023-02-25T11:33:50;7.00;99.90
13652;DHT22;6899;51.546;6.912;2023-02-25T11:36:22;7.20;99.90
13652;DHT22;6899;51.546;6.912;2023-02-25T11:38:49;7.60;99.90
13652;DHT22;6899;51.546;6.912;2023-02-25T11:41:30;6.60;99.90
13652;DHT22;6899;51.546;6.912;2023-02-25T11:44:11;5.20;99.90
13652;DHT22;6899;51.546;6.912;2023-02-25T11:46:44;4.30;99.90
13652;DHT22;6899;51.546;6.912;2023-02-25T11:49:18;4.10;99.90
13652;DHT22;6899;51.546;6.912;2023-02-25T11:51:53;4.30;99.90
13652;DHT22;6899;51.546;6.912;2023-02-25T11:54:29;4.50;99.90
13652;DHT22;6899;51.546;6.912;2023-02-25T11:57:06;4.60;99.90
13652;DHT22;6899;51.546;6.912;2023-02-25T11:59:36;4.70;99.90
13652;DHT22;6899;51.546;6.912;2023-02-25T12:02:19;4.70;99.90
13652;DHT22;6899;51.546;6.912;2023-02-25T12:08:26;5.20;99.90
13652;DHT22;6899;51.546;6.912;2023-02-25T12:17:46;6.20;99.90
13652;DHT22;6899;51.546;6.912;2023-02-25T12:23:49;7.10;99.90
13652;DHT22;6899;51.546;6.912;2023-02-25T12:26:33;7.50;99.90
13652;DHT22;6899;51.546;6.912;2023-02-25T12:29:31;7.50;99.90
13652;DHT22;6899;51.546;6.912;2023-02-25T12:32:11;7.10;93.40
13652;DHT22;6899;51.546;6.912;2023-02-25T12:34:57;6.70;92.10
13652;DHT22;6899;51.546;6.912;2023-02-25T12:37:51;6.20;96.10
13652;DHT22;6899;51.546;6.912;2023-02-25T12:40:37;6.10;99.90
13652;DHT22;6899;51.546;6.912;2023-02-25T12:43:18;6.30;99.90
13652;DHT22;6899;51.546;6.912;2023-02-25T12:46:03;6.90;99.90
13652;DHT22;6899;51.546;6.912;2023-02-25T12:49:01;7.60;95.60
13652;DHT22;6899;51.546;6.912;2023-02-25T12:55:03;7.70;90.60
13652;DHT22;6899;51.546;6.912;2023-02-25T12:57:42;7.20;92.00
13652;DHT22;6899;51.546;6.912;2023-02-25T13:00:35;6.90;93.20
13652;DHT22;6899;51.546;6.912;2023-02-25T13:03:26;6.60;90.50
13652;DHT22;6899;51.546;6.912;2023-02-25T13:09:25;6.90;92.40
13652;DHT22;6899;51.546;6.912;2023-02-25T13:12:16;7.00;82.20
13652;DHT22;6899;51.546;6.912;2023-02-25T13:14:57;7.10;85.90
13652;DHT22;6899;51.546;6.912;2023-02-25T13:17:36;7.50;89.80
13652;DHT22;6899;51.546;6.912;2023-02-25T13:20:31;7.80;84.70
13652;DHT22;6899;51.546;6.912;2023-02-25T13:26:16;7.50;79.20
13652;DHT22;6899;51.546;6.912;2023-02-25T13:29:02;7.10;84.90
13652;DHT22;6899;51.546;6.912;2023-02-25T13:31:46;6.60;84.40
13652;DHT22;6899;51.546;6.912;2023-02-25T13:34:29;6.10;84.20
13652;DHT22;6899;51.546;6.912;2023-02-25T13:37:16;6.10;87.50
13652;DHT22;6899;51.546;6.912;2023-02-25T13:40:03;6.20;89.90
13652;DHT22;6899;51.546;6.912;2023-02-25T13:42:49;6.60;83.80
13652;DHT22;6899;51.546;6.912;2023-02-25T13:46:12;7.00;82.80
13652;DHT22;6899;51.546;6.912;2023-02-25T13:49:04;7.30;78.90
13652;DHT22;6899;51.546;6.912;2023-02-25T13:57:49;7.00;82.70
13652;DHT22;6899;51.546;6.912;2023-02-25T14:06:54;6.90;79.70
13652;DHT22;6899;51.546;6.912;2023-02-25T14:09:33;7.00;75.50
13652;DHT22;6899;51.546;6.912;2023-02-25T14:12:08;6.90;70.90
13652;DHT22;6899;51.546;6.912;2023-02-25T14:21:08;6.10;69.10
13652;DHT22;6899;51.546;6.912;2023-02-25T14:23:46;6.00;65.40
13652;DHT22;6899;51.546;6.912;2023-02-25T14:26:31;6.00;66.70
13652;DHT22;6899;51.546;6.912;2023-02-25T14:29:10;6.00;67.40
13652;DHT22;6899;51.546;6.912;2023-02-25T14:31:48;6.10;65.60
13652;DHT22;6899;51.546;6.912;2023-02-25T14:34:33;6.10;67.20
13652;DHT22;6899;51.546;6.912;2023-02-25T14:37:14;6.20;66.50
13652;DHT22;6899;51.546;6.912;2023-02-25T14:39:57;6.20;65.20
13652;DHT22;6899;51.546;6.912;2023-02-25T14:42:47;6.20;67.80
13652;DHT22;6899;51.546;6.912;2023-02-25T14:45:23;6.20;66.30
13652;DHT22;6899;51.546;6.912;2023-02-25T14:48:00;6.00;66.30
13652;DHT22;6899;51.546;6.912;2023-02-25T14:50:30;6.10;68.80
13652;DHT22;6899;51.546;6.912;2023-02-25T14:53:23;6.00;68.60
13652;DHT22;6899;51.546;6.912;2023-02-25T14:56:15;6.10;70.90
13652;DHT22;6899;51.546;6.912;2023-02-25T14:59:10;6.00;68.30
13652;DHT22;6899;51.546;6.912;2023-02-25T15:02:07;6.10;72.40
13652;DHT22;6899;51.546;6.912;2023-02-25T15:05:15;6.10;71.50
13652;DHT22;6899;51.546;6.912;2023-02-25T15:10:47;5.90;72.30
13652;DHT22;6899;51.546;6.912;2023-02-25T15:13:41;5.90;76.70
13652;DHT22;6899;51.546;6.912;2023-02-25T15:16:40;5.80;70.60
13652;DHT22;6899;51.546;6.912;2023-02-25T15:19:38;5.80;68.70
13652;DHT22;6899;51.546;6.912;2023-02-25T15:22:21;5.70;73.40
13652;DHT22;6899;51.546;6.912;2023-02-25T15:24:50;5.60;69.80
13652;DHT22;6899;51.546;6.912;2023-02-25T15:27:44;5.60;71.60
13652;DHT22;6899;51.546;6.912;2023-02-25T15:30:15;5.60;69.10
13652;DHT22;6899;51.546;6.912;2023-02-25T15:33:03;5.50;64.80
13652;DHT22;6899;51.546;6.912;2023-02-25T15:36:01;5.50;63.80
13652;DHT22;6899;51.546;6.912;2023-02-25T15:38:45;5.40;67.30
13652;DHT22;6899;51.546;6.912;2023-02-25T15:41:41;5.40;67.40
13652;DHT22;6899;51.546;6.912;2023-02-25T15:44:38;5.30;68.20
13652;DHT22;6899;51.546;6.912;2023-02-25T15:47:28;5.10;71.20
13652;DHT22;6899;51.546;6.912;2023-02-25T15:49:56;5.10;71.30
13652;DHT22;6899;51.546;6.912;2023-02-25T15:52:49;5.00;69.50
13652;DHT22;6899;51.546;6.912;2023-02-25T15:55:30;4.90;71.30
13652;DHT22;6899;51.546;6.912;2023-02-25T15:57:57;4.80;72.70
13652;DHT22;6899;51.546;6.912;2023-02-25T16:00:55;4.70;70.40
13652;DHT22;6899;51.546;6.912;2023-02-25T16:03:41;4.60;72.80
13652;DHT22;6899;51.546;6.912;2023-02-25T16:06:12;4.60;68.20
13652;DHT22;6899;51.546;6.912;2023-02-25T16:08:44;4.50;71.10
13652;DHT22;6899;51.546;6.912;2023-02-25T16:11:23;4.40;70.50
13652;DHT22;6899;51.546;6.912;2023-02-25T16:13:51;4.30;75.40
13652;DHT22;6899;51.546;6.912;2023-02-25T16:16:19;4.20;74.40
13652;DHT22;6899;51.546;6.912;2023-02-25T16:18:50;4.20;77.70
13652;DHT22;6899;51.546;6.912;2023-02-25T16:21:22;4.10;78.30
13652;DHT22;6899;51.546;6.912;2023-02-25T16:23:52;4.10;79.90
13652;DHT22;6899;51.546;6.912;2023-02-25T16:26:33;4.00;84.20
13652;DHT22;6899;51.546;6.912;2023-02-25T16:29:13;3.90;85.30
13652;DHT22;6899;51.546;6.912;2023-02-25T16:31:48;3.80;83.00
13652;DHT22;6899;51.546;6.912;2023-02-25T16:34:23;3.70;87.40
13652;DHT22;6899;51.546;6.912;2023-02-25T16:36:56;3.70;81.90
13652;DHT22;6899;51.546;6.912;2023-02-25T16:39:29;3.60;81.20
13652;DHT22;6899;51.546;6.912;2023-02-25T16:42:01;3.40;85.60
13652;DHT22;6899;51.546;6.912;2023-02-25T16:44:31;3.30;85.70
13652;DHT22;6899;51.546;6.912;2023-02-25T16:47:00;3.10;92.40
13652;DHT22;6899;51.546;6.912;2023-02-25T16:49:32;3.00;90.50
13652;DHT22;6899;51.546;6.912;2023-02-25T16:51:59;3.10;94.70
13652;DHT22;6899;51.546;6.912;2023-02-25T16:54:30;2.90;92.10
13652;DHT22;6899;51.546;6.912;2023-02-25T16:57:00;2.80;93.30
13652;DHT22;6899;51.546;6.912;2023-02-25T16:59:30;2.70;95.60
13652;DHT22;6899;51.546;6.912;2023-02-25T17:02:01;2.80;96.00
13652;DHT22;6899;51.546;6.912;2023-02-25T17:04:34;2.90;90.30
13652;DHT22;6899;51.546;6.912;2023-02-25T17:07:12;2.70;92.50
13652;DHT22;6899;51.546;6.912;2023-02-25T17:09:43;2.40;99.40
13652;DHT22;6899;51.546;6.912;2023-02-25T17:12:14;2.50;93.30
13652;DHT22;6899;51.546;6.912;2023-02-25T17:14:44;2.40;97.90
13652;DHT22;6899;51.546;6.912;2023-02-25T17:17:15;2.20;95.50
13652;DHT22;6899;51.546;6.912;2023-02-25T17:19:44;2.10;97.40
13652;DHT22;6899;51.546;6.912;2023-02-25T17:22:11;2.10;96.00
13652;DHT22;6899;51.546;6.912;2023-02-25T17:24:38;2.00;98.40
13652;DHT22;6899;51.546;6.912;2023-02-25T17:27:07;2.00;99.20
13652;DHT22;6899;51.546;6.912;2023-02-25T17:29:37;2.00;98.40